Estación Meteorológica Peña el Pijo (Robertgarden) [ 01/21/21 08:46:55 CET ]

Fecha Hora Presion(HPa) Temp (°C) Humedad % Rocio (°C) Viento ( m/s) Direccion Lluvia 1Hora(mm) Lluvia 24H(mm) LLuvia Total(mm)
2020-Sep-30 01:09:35 1010.200 11.4 71 6.3 - N     89.61
2020-Sep-30 02:09:35 1010.100 11.0 72 6.2 - N     89.61
2020-Sep-30 03:09:39 1010.000 10.1 74 5.7 - N     89.61
2020-Sep-30 04:09:46 1009.700 9.3 74 4.9 - N     89.61
2020-Sep-30 05:09:49 1009.500 8.8 76 4.8 - N     89.61
2020-Sep-30 06:09:34 1009.700 8.4 76 4.4 - N     89.61
2020-Sep-30 07:09:14 1009.700 7.9 76 3.9 - N     89.61
2020-Sep-30 08:09:29 1009.700 7.6 77 3.8 - N     89.61
2020-Sep-30 09:09:10 1009.800 9.8 76 5.7 - N     89.61
2020-Sep-30 10:09:45 1009.900 18.1 54 8.6 - N     89.61
2020-Sep-30 11:09:24 1009.700 22.4 42 8.8 - N     89.61
2020-Sep-30 12:09:35 1009.400 26.4 29 7.5 - N     89.61
2020-Sep-30 13:09:20 1009.200 26.3 28 6.2 - N     89.61
2020-Sep-30 14:09:22 1008.600 24.8 30 6.1 - N     89.61
2020-Sep-30 15:09:12 1008.200 24.6 30 5.9 - N     89.61
2020-Sep-30 16:09:17 1007.900 23.8 31 5.6 - N     89.61
2020-Sep-30 17:09:46 1007.600 23.3 32 5.6 - N     89.61
2020-Sep-30 18:09:06 1007.700 22.5 35 6.2 - N     89.61
2020-Sep-30 19:09:38 1007.800 21.5 35 5.3 - N     89.61
2020-Sep-30 20:09:42 1008.000 18.7 47 7.1 - N     89.61
2020-Sep-30 21:09:55 1008.300 16.1 52 6.2 - N     89.61
2020-Sep-30 22:09:27 1008.300 14.7 57 6.2 - N     89.61
2020-Sep-30 23:09:18 1008.400 13.3 59 5.4 - N     89.61

Temperatura Máxima:26°    Temperatura Mínima:
Presión Máxima:1010.200 Hpa    Presión Mínima:1007.600 Hpa


Volver